createdAt,value
2022-09-01T00:01:19.546Z,67.49
2022-09-01T00:03:49.712Z,67.72
2022-09-01T00:06:22.480Z,68.03
2022-09-01T00:08:51.145Z,67.83
2022-09-01T00:11:18.460Z,68.02
2022-09-01T00:13:45.175Z,68.37
2022-09-01T00:16:15.631Z,68.89
2022-09-01T00:18:43.931Z,68.91
2022-09-01T00:21:11.335Z,69.05
2022-09-01T00:23:38.034Z,69.26
2022-09-01T00:26:04.720Z,69.52
2022-09-01T00:28:34.052Z,69.23
2022-09-01T00:31:01.201Z,69.47
2022-09-01T00:33:27.955Z,69.38
2022-09-01T00:35:54.666Z,69.57
2022-09-01T00:38:21.671Z,70.10
2022-09-01T00:40:48.378Z,69.45
2022-09-01T00:43:20.583Z,69.93
2022-09-01T00:45:47.376Z,69.54
2022-09-01T00:48:15.132Z,69.82
2022-09-01T00:50:42.196Z,69.75
2022-09-01T00:53:09.982Z,69.81
2022-09-01T00:55:41.104Z,70.30
2022-09-01T00:58:19.981Z,69.85
2022-09-01T01:00:49.700Z,69.81
2022-09-01T01:03:16.748Z,70.10
2022-09-01T01:05:48.841Z,69.86
2022-09-01T01:08:19.509Z,69.82
2022-09-01T01:10:46.208Z,69.95
2022-09-01T01:13:16.357Z,69.55
2022-09-01T01:15:44.388Z,69.91
2022-09-01T01:18:16.005Z,70.25
2022-09-01T01:21:17.079Z,70.26
2022-09-01T01:23:54.719Z,70.00
2022-09-01T01:26:21.362Z,69.91
2022-09-01T01:28:48.809Z,69.97
2022-09-01T01:31:20.304Z,69.89
2022-09-01T01:33:50.547Z,69.95
2022-09-01T01:36:32.549Z,70.43
2022-09-01T01:39:07.722Z,70.33
2022-09-01T01:41:36.128Z,70.11
2022-09-01T01:44:05.340Z,70.29
2022-09-01T01:46:34.991Z,70.01
2022-09-01T01:49:05.041Z,70.08
2022-09-01T01:51:32.918Z,69.84
2022-09-01T01:54:02.236Z,69.87
2022-09-01T01:56:29.020Z,69.89
2022-09-01T01:58:57.735Z,70.01
2022-09-01T02:01:30.050Z,69.87
2022-09-01T02:03:57.745Z,69.76
2022-09-01T02:06:28.506Z,69.61
2022-09-01T02:08:59.156Z,69.66
2022-09-01T02:11:26.531Z,69.42
2022-09-01T02:13:57.165Z,69.68
2022-09-01T02:16:26.731Z,69.54
2022-09-01T02:18:54.041Z,69.57
2022-09-01T02:21:23.620Z,69.54
2022-09-01T02:24:02.489Z,69.83
2022-09-01T02:26:38.624Z,69.90
2022-09-01T02:29:17.977Z,69.77
2022-09-01T02:31:47.072Z,69.65
2022-09-01T02:34:14.480Z,69.89
2022-09-01T02:36:47.600Z,70.24
2022-09-01T02:39:21.350Z,70.72
2022-09-01T02:41:47.968Z,71.09
2022-09-01T02:44:14.828Z,71.96
2022-09-01T02:46:46.092Z,71.46
2022-09-01T02:49:19.753Z,71.30
2022-09-01T02:51:50.534Z,71.62
2022-09-01T02:54:19.185Z,71.67
2022-09-01T02:56:48.339Z,71.64
2022-09-01T02:59:21.752Z,71.75
2022-09-01T03:01:51.329Z,71.82
2022-09-01T03:04:19.964Z,72.00
2022-09-01T03:06:46.980Z,72.12
2022-09-01T03:09:17.355Z,72.42
2022-09-01T03:11:47.819Z,72.46
2022-09-01T03:14:15.108Z,72.65
2022-09-01T03:16:41.783Z,72.70
2022-09-01T03:19:09.764Z,72.70
2022-09-01T03:21:40.875Z,72.73
2022-09-01T03:24:15.207Z,73.03
2022-09-01T03:26:43.333Z,73.16
2022-09-01T03:29:10.642Z,72.80
2022-09-01T03:31:38.087Z,72.77
2022-09-01T03:34:06.121Z,73.08
2022-09-01T03:36:37.370Z,72.77
2022-09-01T03:39:04.463Z,72.67
2022-09-01T03:41:32.286Z,72.73
2022-09-01T03:43:59.609Z,72.74
2022-09-01T03:46:35.835Z,72.90
2022-09-01T03:49:07.135Z,73.17
2022-09-01T03:51:39.084Z,73.40
2022-09-01T03:54:07.122Z,73.60
2022-09-01T03:56:34.015Z,73.56
2022-09-01T03:59:01.362Z,73.62
2022-09-01T04:01:38.012Z,73.81
2022-09-01T04:04:05.145Z,73.63
2022-09-01T04:06:32.423Z,74.11
2022-09-01T04:09:03.083Z,73.99
2022-09-01T04:11:36.183Z,74.46
2022-09-01T04:14:02.924Z,74.56
2022-09-01T04:16:54.818Z,74.71
2022-09-01T04:19:27.850Z,75.06
2022-09-01T04:22:00.157Z,75.05
2022-09-01T04:24:34.889Z,75.12
2022-09-01T04:27:03.241Z,74.92
2022-09-01T04:29:31.985Z,75.30
2022-09-01T04:32:03.653Z,75.10
2022-09-01T04:34:42.980Z,75.29
2022-09-01T04:37:18.103Z,75.71
2022-09-01T04:39:56.235Z,75.40
2022-09-01T04:42:29.248Z,75.72
2022-09-01T04:44:57.814Z,76.04
2022-09-01T04:47:36.204Z,75.96
2022-09-01T04:50:14.144Z,75.96
2022-09-01T04:52:45.857Z,76.11
2022-09-01T04:55:28.750Z,76.35
2022-09-01T04:57:58.298Z,76.01
2022-09-01T05:00:27.008Z,75.78
2022-09-01T05:03:03.379Z,75.95
2022-09-01T05:05:45.253Z,75.97
2022-09-01T05:08:24.327Z,75.98
2022-09-01T05:10:55.800Z,76.25
2022-09-01T05:13:38.889Z,76.06
2022-09-01T05:16:13.020Z,75.81
2022-09-01T05:18:44.368Z,75.58
2022-09-01T05:21:11.245Z,75.41
2022-09-01T05:23:40.442Z,75.76
2022-09-01T05:26:17.983Z,75.63
2022-09-01T05:28:47.802Z,75.40
2022-09-01T05:31:14.927Z,75.31
2022-09-01T05:33:45.939Z,75.00
2022-09-01T05:36:14.701Z,74.78
2022-09-01T05:38:42.332Z,74.71
2022-09-01T05:41:15.092Z,74.47
2022-09-01T05:43:46.498Z,73.99
2022-09-01T05:46:16.898Z,73.62
2022-09-01T05:48:45.390Z,73.61
2022-09-01T05:51:42.622Z,73.54
2022-09-01T05:54:09.794Z,73.36
2022-09-01T05:56:43.530Z,73.07
2022-09-01T05:59:28.614Z,72.97
2022-09-01T06:01:59.348Z,72.30
2022-09-01T06:04:27.795Z,72.21
2022-09-01T06:07:09.038Z,71.49
2022-09-01T06:09:46.910Z,71.76
2022-09-01T06:12:18.942Z,71.93
2022-09-01T06:14:47.794Z,71.86
2022-09-01T06:17:18.591Z,72.11
2022-09-01T06:19:46.020Z,71.87
2022-09-01T06:22:13.098Z,71.30
2022-09-01T06:24:43.455Z,70.70
2022-09-01T06:27:12.403Z,70.03
2022-09-01T06:29:39.919Z,69.74
2022-09-01T06:32:10.444Z,69.23
2022-09-01T06:34:42.782Z,68.44
2022-09-01T06:37:11.050Z,68.18
2022-09-01T06:39:38.410Z,67.79
2022-09-01T06:42:06.757Z,67.18
2022-09-01T06:44:46.106Z,66.87
2022-09-01T06:47:13.436Z,66.17
2022-09-01T06:49:41.137Z,65.65
2022-09-01T06:52:16.988Z,65.20
2022-09-01T06:54:44.249Z,64.60
2022-09-01T06:59:58.098Z,63.98
2022-09-01T07:02:27.084Z,63.67
2022-09-01T07:08:31.098Z,62.86
2022-09-01T07:12:08.819Z,62.66
2022-09-01T07:14:17.216Z,61.54
2022-09-01T07:16:51.830Z,61.71
2022-09-01T07:19:20.662Z,61.09
2022-09-01T07:22:08.603Z,61.00
2022-09-01T07:24:40.104Z,61.01
2022-09-01T07:27:49.022Z,60.75
2022-09-01T07:30:19.026Z,60.52
2022-09-01T07:32:50.847Z,60.14
2022-09-01T07:35:22.522Z,59.90
2022-09-01T07:44:00.922Z,59.06
2022-09-01T07:46:37.049Z,58.98
2022-09-01T07:51:53.105Z,58.63
2022-09-01T07:54:23.767Z,57.93
2022-09-01T07:56:50.874Z,59.00
2022-09-01T07:59:18.314Z,58.54
2022-09-01T08:01:53.309Z,57.67
2022-09-01T08:04:23.075Z,57.46
2022-09-01T08:06:50.380Z,57.03
2022-09-01T08:09:25.322Z,56.96
2022-09-01T08:12:02.286Z,57.04
2022-09-01T08:14:34.698Z,56.21
2022-09-01T08:17:16.764Z,56.08
2022-09-01T08:19:46.958Z,55.87
2022-09-01T08:22:24.058Z,55.00
2022-09-01T08:25:02.270Z,55.34
2022-09-01T08:27:29.274Z,54.61
2022-09-01T08:29:55.839Z,55.50
2022-09-01T08:32:23.010Z,54.69
2022-09-01T08:34:49.902Z,54.17
2022-09-01T08:37:16.574Z,54.83
2022-09-01T08:39:43.228Z,54.46
2022-09-01T08:42:24.632Z,54.20
2022-09-01T08:45:13.206Z,56.08
2022-09-01T08:48:04.599Z,55.34
2022-09-01T08:50:26.776Z,55.12
2022-09-01T08:53:28.995Z,54.16
2022-09-01T08:55:58.654Z,53.05
2022-09-01T08:58:32.509Z,52.74
2022-09-01T09:01:31.772Z,52.07
2022-09-01T09:04:18.583Z,52.56
2022-09-01T09:07:05.643Z,52.18
2022-09-01T09:09:49.430Z,51.54
2022-09-01T09:12:28.633Z,52.58
2022-09-01T09:14:55.348Z,51.23
2022-09-01T09:17:29.596Z,51.58
2022-09-01T09:19:56.255Z,51.34
2022-09-01T09:22:22.900Z,51.01
2022-09-01T09:25:17.434Z,50.60
2022-09-01T09:27:48.574Z,51.13
2022-09-01T09:30:27.930Z,50.43
2022-09-01T09:35:50.578Z,50.69
2022-09-01T09:38:24.186Z,50.23
2022-09-01T09:41:20.259Z,50.29
2022-09-01T09:43:58.650Z,49.94
2022-09-01T09:46:35.879Z,49.52
2022-09-01T09:49:34.645Z,50.11
2022-09-01T09:52:19.129Z,48.84
2022-09-01T09:55:05.668Z,49.33
2022-09-01T09:57:33.322Z,49.15
2022-09-01T10:00:16.666Z,48.20
2022-09-01T10:02:51.246Z,47.17
2022-09-01T10:05:22.958Z,48.44
2022-09-01T10:07:50.179Z,48.83
2022-09-01T10:10:28.129Z,47.52
2022-09-01T10:12:56.139Z,47.26
2022-09-01T10:15:30.739Z,45.78
2022-09-01T10:21:06.264Z,46.78
2022-09-01T10:23:34.855Z,46.10
2022-09-01T10:26:35.893Z,47.59
2022-09-01T10:29:27.190Z,47.59
2022-09-01T10:32:14.850Z,47.00
2022-09-01T10:34:44.194Z,49.16
2022-09-01T10:37:15.923Z,50.05
2022-09-01T10:40:10.939Z,48.60
2022-09-01T10:42:39.099Z,49.49
2022-09-01T10:45:05.923Z,50.01
2022-09-01T10:47:37.824Z,50.16
2022-09-01T10:50:23.862Z,50.50
2022-09-01T10:52:56.836Z,48.88
2022-09-01T10:55:36.580Z,49.36
2022-09-01T11:01:25.324Z,51.22
2022-09-01T11:03:56.384Z,50.95
2022-09-01T11:06:42.170Z,50.12
2022-09-01T11:09:18.110Z,49.93
2022-09-01T11:12:03.151Z,49.58
2022-09-01T11:14:35.719Z,47.37
2022-09-01T11:17:17.478Z,48.74
2022-09-01T11:20:00.438Z,48.91
2022-09-01T11:22:32.630Z,49.36
2022-09-01T11:25:26.088Z,47.73
2022-09-01T11:27:52.648Z,47.64
2022-09-01T11:30:25.113Z,48.27
2022-09-01T11:32:59.530Z,48.58
2022-09-01T11:35:29.015Z,48.97
2022-09-01T11:38:02.020Z,48.60
2022-09-01T11:40:32.549Z,47.75
2022-09-01T11:43:03.977Z,47.96
2022-09-01T11:45:33.911Z,47.79
2022-09-01T11:48:05.488Z,48.42
2022-09-01T11:50:37.902Z,47.84
2022-09-01T11:53:08.412Z,45.67
2022-09-01T11:55:38.076Z,43.14
2022-09-01T11:58:05.883Z,45.01
2022-09-01T12:00:38.755Z,45.71
2022-09-01T12:03:20.982Z,46.21
2022-09-01T12:05:52.315Z,45.73
2022-09-01T12:08:24.041Z,45.51
2022-09-01T12:10:51.412Z,46.41
2022-09-01T12:13:21.632Z,46.44
2022-09-01T12:16:24.838Z,44.37
2022-09-01T12:18:53.951Z,45.09
2022-09-01T12:21:42.515Z,44.99
2022-09-01T12:24:17.288Z,45.38
2022-09-01T12:26:45.959Z,43.54
2022-09-01T12:29:16.453Z,42.34
2022-09-01T12:31:50.270Z,42.21
2022-09-01T12:34:46.527Z,42.40
2022-09-01T12:37:24.382Z,41.78
2022-09-01T12:39:57.455Z,43.70
2022-09-01T12:42:28.349Z,44.26
2022-09-01T12:45:08.992Z,44.86
2022-09-01T12:47:48.084Z,44.20
2022-09-01T12:50:16.432Z,43.94
2022-09-01T12:52:47.569Z,44.24
2022-09-01T12:58:25.120Z,42.72
2022-09-01T13:01:05.202Z,42.66
2022-09-01T13:03:34.677Z,41.54
2022-09-01T13:06:03.498Z,41.57
2022-09-01T13:08:33.283Z,41.10
2022-09-01T13:11:06.549Z,41.14
2022-09-01T13:13:35.299Z,40.94
2022-09-01T13:16:04.435Z,41.32
2022-09-01T13:18:31.300Z,40.61
2022-09-01T13:20:59.029Z,39.67
2022-09-01T13:23:25.707Z,38.51
2022-09-01T13:25:53.005Z,37.85
2022-09-01T13:28:20.943Z,37.87
2022-09-01T13:31:28.721Z,37.95
2022-09-01T13:36:45.082Z,38.35
2022-09-01T13:39:13.485Z,38.77
2022-09-01T13:41:40.139Z,37.62
2022-09-01T13:44:06.954Z,37.76
2022-09-01T13:46:33.535Z,37.80
2022-09-01T13:49:03.625Z,38.39
2022-09-01T13:51:31.221Z,38.43
2022-09-01T13:53:57.884Z,38.02
2022-09-01T13:56:24.906Z,38.02
2022-09-01T13:58:51.830Z,38.84
2022-09-01T14:01:18.958Z,38.93
2022-09-01T14:03:50.022Z,38.85
2022-09-01T14:06:18.433Z,39.61
2022-09-01T14:08:45.036Z,39.34
2022-09-01T14:11:17.778Z,39.99
2022-09-01T14:13:45.871Z,39.76
2022-09-01T14:16:13.876Z,39.86
2022-09-01T14:18:41.562Z,39.20
2022-09-01T14:21:14.802Z,39.10
2022-09-01T14:23:42.604Z,39.30
2022-09-01T14:26:14.778Z,39.35
2022-09-01T14:28:45.699Z,39.01
2022-09-01T14:31:15.130Z,38.85
2022-09-01T14:33:42.779Z,38.96
2022-09-01T14:36:17.465Z,38.75
2022-09-01T14:38:44.087Z,38.85
2022-09-01T14:41:14.614Z,38.62
2022-09-01T14:43:43.080Z,38.77
2022-09-01T14:46:10.879Z,38.85
2022-09-01T14:48:40.014Z,38.73
2022-09-01T14:51:08.440Z,38.93
2022-09-01T14:53:35.699Z,38.88
2022-09-01T14:56:03.089Z,38.87
2022-09-01T14:58:29.792Z,39.25
2022-09-01T15:01:03.449Z,39.58
2022-09-01T15:03:34.450Z,39.20
2022-09-01T15:06:01.026Z,39.20
2022-09-01T15:08:27.666Z,38.89
2022-09-01T15:10:54.360Z,38.86
2022-09-01T15:13:21.100Z,38.88
2022-09-01T15:15:47.803Z,38.77
2022-09-01T15:18:14.548Z,38.80
2022-09-01T15:20:47.223Z,39.56
2022-09-01T15:23:20.230Z,38.58
2022-09-01T15:25:48.062Z,38.44
2022-09-01T15:28:15.814Z,38.52
2022-09-01T15:30:44.613Z,38.66
2022-09-01T15:33:15.677Z,38.47
2022-09-01T15:35:44.824Z,38.58
2022-09-01T15:38:15.770Z,38.41
2022-09-01T15:40:50.248Z,38.85
2022-09-01T15:43:26.003Z,38.29
2022-09-01T15:45:52.615Z,38.26
2022-09-01T15:48:19.265Z,38.52
2022-09-01T15:50:45.806Z,38.56
2022-09-01T15:53:13.275Z,38.45
2022-09-01T15:55:45.491Z,38.75
2022-09-01T15:58:15.919Z,39.12
2022-09-01T16:00:43.702Z,39.12
2022-09-01T16:03:11.562Z,39.25
2022-09-01T16:05:39.839Z,39.59
2022-09-01T16:08:09.774Z,39.97
2022-09-01T16:10:40.610Z,39.88
2022-09-01T16:13:07.449Z,39.71
2022-09-01T16:15:35.344Z,39.58
2022-09-01T16:18:07.948Z,39.74
2022-09-01T16:20:55.765Z,39.96
2022-09-01T16:23:25.219Z,40.15
2022-09-01T16:25:53.707Z,40.21
2022-09-01T16:28:37.109Z,40.03
2022-09-01T16:31:17.894Z,40.42
2022-09-01T16:33:56.309Z,39.74
2022-09-01T16:36:26.025Z,39.76
2022-09-01T16:39:08.151Z,40.15
2022-09-01T16:42:04.532Z,39.98
2022-09-01T16:44:57.595Z,39.78
2022-09-01T16:47:36.270Z,40.01
2022-09-01T16:50:08.916Z,39.99
2022-09-01T16:53:06.926Z,40.86
2022-09-01T16:55:56.803Z,40.55
2022-09-01T16:58:47.281Z,40.28
2022-09-01T17:01:47.319Z,40.63
2022-09-01T17:04:47.520Z,40.31
2022-09-01T17:07:29.606Z,40.56
2022-09-01T17:10:27.598Z,40.49
2022-09-01T17:12:56.743Z,40.67
2022-09-01T17:15:41.029Z,40.74
2022-09-01T17:18:22.090Z,40.73
2022-09-01T17:20:55.640Z,41.08
2022-09-01T17:23:28.579Z,41.35
2022-09-01T17:26:01.723Z,41.51
2022-09-01T17:28:45.395Z,41.84
2022-09-01T17:31:17.719Z,42.02
2022-09-01T17:34:03.293Z,42.15
2022-09-01T17:36:46.966Z,42.78
2022-09-01T17:39:28.904Z,43.18
2022-09-01T17:42:13.405Z,44.15
2022-09-01T17:44:55.443Z,46.90
2022-09-01T17:47:52.618Z,47.25
2022-09-01T17:50:31.864Z,47.59
2022-09-01T17:53:27.256Z,49.92
2022-09-01T17:55:53.790Z,49.59
2022-09-01T17:58:32.327Z,50.90
2022-09-01T18:01:09.816Z,51.43
2022-09-01T18:03:44.731Z,51.07
2022-09-01T18:06:29.971Z,51.07
2022-09-01T18:09:00.771Z,50.34
2022-09-01T18:11:51.934Z,50.82
2022-09-01T18:14:24.393Z,51.49
2022-09-01T18:17:04.351Z,52.14
2022-09-01T18:19:40.464Z,53.47
2022-09-01T18:22:13.410Z,52.81
2022-09-01T18:24:54.947Z,54.59
2022-09-01T18:27:24.261Z,54.02
2022-09-01T18:29:52.203Z,53.54
2022-09-01T18:32:40.883Z,52.94
2022-09-01T18:35:37.711Z,53.69
2022-09-01T18:38:19.195Z,54.74
2022-09-01T18:41:04.313Z,53.01
2022-09-01T18:43:50.799Z,52.74
2022-09-01T18:46:36.111Z,55.03
2022-09-01T18:49:19.810Z,55.66
2022-09-01T18:52:12.884Z,55.91
2022-09-01T18:55:15.642Z,56.25
2022-09-01T18:57:48.432Z,57.00
2022-09-01T19:00:20.576Z,57.92
2022-09-01T19:03:02.018Z,57.04
2022-09-01T19:05:34.647Z,58.11
2022-09-01T19:08:17.106Z,58.59
2022-09-01T19:11:21.583Z,59.91
2022-09-01T19:14:03.343Z,58.82
2022-09-01T19:16:48.784Z,57.25
2022-09-01T19:19:40.126Z,57.29
2022-09-01T19:22:07.863Z,57.31
2022-09-01T19:24:48.646Z,58.55
2022-09-01T19:27:30.792Z,58.01
2022-09-01T19:30:02.119Z,58.72
2022-09-01T19:32:32.331Z,58.58
2022-09-01T19:35:06.463Z,59.07
2022-09-01T19:37:33.421Z,59.28
2022-09-01T19:40:01.014Z,58.72
2022-09-01T19:42:34.373Z,58.87
2022-09-01T19:45:09.942Z,58.88
2022-09-01T19:48:05.914Z,59.28
2022-09-01T19:50:41.428Z,59.62
2022-09-01T19:53:34.621Z,59.98
2022-09-01T19:56:21.943Z,59.50
2022-09-01T19:59:14.088Z,59.48
2022-09-01T20:01:44.997Z,59.73
2022-09-01T20:04:27.291Z,59.51
2022-09-01T20:07:00.964Z,59.70
2022-09-01T20:09:51.955Z,59.24
2022-09-01T20:12:39.506Z,59.25
2022-09-01T20:15:24.547Z,59.26
2022-09-01T20:18:04.064Z,59.48
2022-09-01T20:20:39.058Z,59.68
2022-09-01T20:23:27.069Z,60.27
2022-09-01T20:26:15.842Z,60.41
2022-09-01T20:29:03.783Z,60.03
2022-09-01T20:31:35.248Z,59.64
2022-09-01T20:34:14.606Z,60.13
2022-09-01T20:36:56.194Z,59.00
2022-09-01T20:39:46.306Z,59.44
2022-09-01T20:42:19.809Z,59.92
2022-09-01T20:44:55.281Z,60.35
2022-09-01T20:47:27.919Z,60.27
2022-09-01T20:49:56.889Z,60.19
2022-09-01T20:52:39.877Z,60.35
2022-09-01T20:55:28.247Z,59.69
2022-09-01T20:58:06.300Z,59.11
2022-09-01T21:00:45.045Z,58.43
2022-09-01T21:03:34.193Z,58.25
2022-09-01T21:06:20.032Z,57.86
2022-09-01T21:09:05.135Z,57.27
2022-09-01T21:11:51.986Z,56.02
2022-09-01T21:14:32.784Z,55.05
2022-09-01T21:17:13.296Z,54.97
2022-09-01T21:20:02.830Z,54.75
2022-09-01T21:22:29.835Z,54.54
2022-09-01T21:24:56.778Z,54.57
2022-09-01T21:27:26.853Z,54.02
2022-09-01T21:29:59.671Z,53.86
2022-09-01T21:32:29.112Z,53.76
2022-09-01T21:34:56.690Z,52.71
2022-09-01T21:37:24.551Z,52.40
2022-09-01T21:39:53.143Z,52.45
2022-09-01T21:42:44.801Z,52.02
2022-09-01T21:45:13.656Z,52.06
2022-09-01T21:47:42.638Z,52.13
2022-09-01T21:50:10.359Z,52.25
2022-09-01T21:52:37.186Z,51.68
2022-09-01T21:55:04.756Z,51.51
2022-09-01T21:57:31.613Z,51.56
2022-09-01T21:59:58.270Z,51.58
2022-09-01T22:02:28.439Z,51.21
2022-09-01T22:04:55.409Z,51.24
2022-09-01T22:07:21.994Z,50.88
2022-09-01T22:09:48.725Z,50.97
2022-09-01T22:12:15.362Z,50.70
2022-09-01T22:14:41.967Z,50.44
2022-09-01T22:17:08.640Z,50.37
2022-09-01T22:19:36.188Z,50.45
2022-09-01T22:22:03.839Z,50.37
2022-09-01T22:24:30.808Z,50.47
2022-09-01T22:26:57.511Z,50.22
2022-09-01T22:29:25.119Z,50.43
2022-09-01T22:31:51.953Z,50.45
2022-09-01T22:34:18.562Z,50.39
2022-09-01T22:36:47.879Z,50.13
2022-09-01T22:39:17.326Z,50.11
2022-09-01T22:41:44.064Z,50.01
2022-09-01T22:44:11.073Z,49.97
2022-09-01T22:46:38.886Z,50.08
2022-09-01T22:49:06.486Z,50.23
2022-09-01T22:51:34.161Z,50.10
2022-09-01T22:54:00.925Z,50.47
2022-09-01T22:56:32.084Z,50.61
2022-09-01T22:59:03.976Z,50.66
2022-09-01T23:01:34.033Z,50.44
2022-09-01T23:04:04.587Z,50.35
2022-09-01T23:06:33.370Z,50.46
2022-09-01T23:09:02.435Z,50.42
2022-09-01T23:11:29.235Z,50.44
2022-09-01T23:13:56.427Z,50.48
2022-09-01T23:16:24.643Z,50.58
2022-09-01T23:18:52.973Z,50.84
2022-09-01T23:21:23.999Z,50.76
2022-09-01T23:23:58.499Z,50.93
2022-09-01T23:26:26.500Z,51.00
2022-09-01T23:28:53.705Z,51.26
2022-09-01T23:31:24.581Z,51.24
2022-09-01T23:33:51.957Z,51.24
2022-09-01T23:36:20.930Z,51.28
2022-09-01T23:38:47.845Z,51.30
2022-09-01T23:41:23.076Z,51.74
2022-09-01T23:43:51.724Z,51.67
2022-09-01T23:46:24.611Z,51.98
2022-09-01T23:48:51.893Z,52.09
2022-09-01T23:51:18.922Z,52.01
2022-09-01T23:53:46.633Z,52.13
2022-09-01T23:56:16.510Z,52.46
2022-09-01T23:58:44.186Z,52.50
